Overview Statistics Trail Chart Weather Telemetry Raw packets
 

This is the latest recevied weather packets stored in our database for station/object KJ7HSW. If no packets are shown the sender has not sent any weather packets the latest 10 day(s).

<< 110 111 112 113 114 >>
Time Temp. Humidity Pressure Rain* Wind** Luminosity Snow
1787766775 21.11° C 67% 1016.8 hPa 0 mm - 648 W/m² -
1787766474 21.67° C 67% 1016.8 hPa 0 mm - 658 W/m² -
1787766169 21.11° C 67% 1016.9 hPa 0 mm - 614 W/m² -
1787765864 20.56° C 70% 1017 hPa 0 mm - 557 W/m² -
1787765561 20.56° C 69% 1017 hPa 0 mm - 553 W/m² -
1787765260 21.11° C 67% 1016.9 hPa 0 mm - 523 W/m² -
1787764960 20.56° C 69% 1016.9 hPa 0 mm - 506 W/m² -
1787764655 20.56° C 68% 1016.9 hPa 0 mm - 496 W/m² -
1787764355 20.56° C 70% 1016.9 hPa 0 mm - 479 W/m² -
1787764052 20° C 71% 1016.9 hPa 0 mm - 455 W/m² -
1787763747 19.44° C 72% 1017 hPa 0 mm - 424 W/m² -
1787763442 20° C 71% 1017.1 hPa 0 mm - 440 W/m² -
1787763136 20° C 71% 1017.2 hPa 0 mm - 424 W/m² -
1787762836 19.44° C 72% 1017.1 hPa 0 mm - 424 W/m² -
1787762531 19.44° C 72% 1017.2 hPa 0 mm - 404 W/m² -
1787762228 18.89° C 74% 1017.2 hPa 0 mm - 404 W/m² -
1787761923 18.89° C 74% 1017.1 hPa 0 mm - 378 W/m² -
1787761623 18.89° C 76% 1017.1 hPa 0 mm - 359 W/m² -
1787761318 17.78° C 78% 1017.2 hPa 0 mm - 348 W/m² -
1787761017 17.78° C 78% 1017.2 hPa 0 mm - 243 W/m² -
1787760715 18.33° C 77% 1017.3 hPa 0 mm - 288 W/m² -
1787760410 17.78° C 78% 1017.2 hPa 0 mm - 232 W/m² -
1787760105 17.22° C 80% 1017.4 hPa 0 mm - 249 W/m² -
1787759802 16.67° C 82% 1017.4 hPa 0 mm - 253 W/m² -
1787759498 16.11° C 84% 1017.3 hPa 0 mm - 124 W/m² -

* Rain latest hour (hover to see other rain measurements)
** Current wind speed in m/s (hover to see current wind gust speed)